Time;durP1;ratioP1;P1;durP2;ratioP2;P2;SDS_P1;SDS_P2;PMS_P1;PMS_P2;Temp;Humidity;BMP_temperature;BMP_pressure;BME280_temperature;BME280_humidity;BME280_pressure;Samples;Min_cycle;Max_cycle;Signal;HPM_P1;HPM_P2
2021/09/05 00:02:21;;;;;;;9.32;5.55;;;;;;;21.19;62.52;98688.66;5114847;28;20106;-48
2021/09/05 00:04:47;;;;;;;23.50;20.98;;;;;;;21.03;62.42;98690.56;5115908;28;20028;-48
2021/09/05 00:07:13;;;;;;;8.65;5.00;;;;;;;20.85;62.55;98691.09;5114521;28;20035;-48
2021/09/05 00:09:38;;;;;;;9.63;5.82;;;;;;;20.48;63.36;98686.78;5115818;28;20481;-48
2021/09/05 00:12:05;;;;;;;5.93;4.80;;;;;;;20.08;64.31;98688.28;5115714;28;20099;-48
2021/09/05 00:14:31;;;;;;;7.43;5.57;;;;;;;19.81;65.17;98691.94;5097280;28;20019;-48
2021/09/05 00:16:57;;;;;;;9.00;5.38;;;;;;;19.65;65.76;98693.69;5115616;28;20098;-48
2021/09/05 00:19:22;;;;;;;9.82;6.10;;;;;;;19.57;66.17;98691.53;5097263;28;20623;-48
2021/09/05 00:21:48;;;;;;;10.35;7.07;;;;;;;19.51;66.31;98693.38;5087401;28;20110;-48
2021/09/05 00:24:14;;;;;;;13.93;11.57;;;;;;;19.61;66.25;98697.16;5073547;28;20115;-48
2021/09/05 00:26:39;;;;;;;17.42;13.25;;;;;;;19.72;66.01;98704.16;5074829;28;20028;-48
2021/09/05 00:29:05;;;;;;;36.50;30.08;;;;;;;19.95;65.67;98702.91;5073394;28;20108;-49
2021/09/05 00:31:31;;;;;;;9.35;7.20;;;;;;;20.05;65.09;98699.50;5074689;28;20024;-48
2021/09/05 00:34:00;;;;;;;30.00;26.02;;;;;;;20.04;64.79;98695.22;5073235;28;20453;-48
2021/09/05 00:36:27;;;;;;;27.17;21.33;;;;;;;20.06;64.77;98696.56;5074600;28;20024;-48
2021/09/05 00:38:52;;;;;;;24.60;19.33;;;;;;;20.13;64.60;98696.31;5073178;28;20510;-48
2021/09/05 00:41:18;;;;;;;27.02;21.00;;;;;;;20.28;64.27;98695.53;5074531;28;20107;-48
2021/09/05 00:44:00;;;;;;;35.65;26.55;;;;;;;20.43;63.90;98692.91;5074560;28;20490;-48
2021/09/05 00:46:25;;;;;;;8.52;5.45;;;;;;;20.30;63.48;98690.75;5074452;28;20089;-48
2021/09/05 00:48:51;;;;;;;7.10;5.68;;;;;;;19.85;64.50;98694.88;5073087;28;20028;-48
2021/09/05 00:51:17;;;;;;;156.05;140.85;;;;;;;19.47;66.04;98702.13;5072961;28;20441;-48
2021/09/05 00:53:45;;;;;;;1403.88;901.13;;;;;;;19.14;67.25;98699.53;5074247;28;20021;-48
2021/09/05 00:56:11;;;;;;;1315.28;799.58;;;;;;;18.91;68.07;98698.06;5074248;28;20486;-51
2021/09/05 00:58:38;;;;;;;337.88;253.65;;;;;;;18.81;68.42;98702.47;5074229;28;20111;-50
2021/09/05 01:01:04;;;;;;;47.45;39.67;;;;;;;18.77;68.71;98707.47;5073416;28;20024;-50
2021/09/05 01:03:30;;;;;;;15.27;12.48;;;;;;;18.71;68.74;98701.31;5072836;28;20532;-50
2021/09/05 01:05:56;;;;;;;14.50;9.85;;;;;;;18.63;69.41;98701.75;5074027;28;20028;-51
2021/09/05 01:08:21;;;;;;;17.33;14.27;;;;;;;18.58;69.45;98690.31;5072742;28;20028;-50
2021/09/05 01:10:47;;;;;;;13.98;10.73;;;;;;;18.61;69.30;98692.44;5074043;28;20021;-50
2021/09/05 01:13:13;;;;;;;190.35;170.68;;;;;;;18.75;69.27;98696.28;5073879;28;20048;-51
2021/09/05 01:15:39;;;;;;;59.92;41.05;;;;;;;18.87;68.72;98694.28;5073907;28;20024;-50
2021/09/05 01:18:07;;;;;;;15.30;9.02;;;;;;;18.94;68.44;98702.84;5073890;28;20086;-50
2021/09/05 01:20:33;;;;;;;47.90;30.58;;;;;;;18.98;67.93;98699.69;5073833;28;20059;-51
2021/09/05 01:23:00;;;;;;;13.90;9.68;;;;;;;18.96;68.11;98706.06;5105468;28;20473;-50
2021/09/05 01:25:26;;;;;;;9.75;7.18;;;;;;;19.00;67.98;98700.25;5114303;28;20023;-50
2021/09/05 01:27:52;;;;;;;8.80;6.32;;;;;;;18.96;68.04;98702.59;5095984;28;20123;-51
2021/09/05 01:30:17;;;;;;;8.80;6.57;;;;;;;18.91;68.41;98703.38;5114212;28;20076;-50
2021/09/05 01:32:43;;;;;;;11.90;6.25;;;;;;;18.95;68.01;98698.34;5114145;28;20030;-51
2021/09/05 01:35:09;;;;;;;11.23;6.45;;;;;;;19.06;68.22;98700.03;5114157;28;20110;-51
2021/09/05 01:37:35;;;;;;;7.65;5.32;;;;;;;19.32;67.46;98705.53;5114099;28;20015;-50
2021/09/05 01:40:00;;;;;;;7.63;5.85;;;;;;;19.45;66.91;98710.38;5095703;28;20440;-51
2021/09/05 01:42:26;;;;;;;10.85;6.35;;;;;;;19.25;66.68;98712.91;5095700;28;20023;-51
2021/09/05 01:44:52;;;;;;;10.23;6.13;;;;;;;18.99;67.55;98717.25;5095619;28;20503;-50
2021/09/05 01:47:18;;;;;;;9.80;6.47;;;;;;;18.67;68.24;98713.53;5095550;28;20032;-50
2021/09/05 01:49:44;;;;;;;7.97;6.28;;;;;;;18.43;69.30;98718.34;5113882;28;20065;-50
2021/09/05 01:52:09;;;;;;;12.85;10.15;;;;;;;18.29;69.88;98717.09;5095495;28;20476;-51
2021/09/05 01:54:35;;;;;;;9.48;6.50;;;;;;;18.15;70.28;98722.03;5112365;28;20027;-51
2021/09/05 01:57:01;;;;;;;8.73;7.00;;;;;;;18.02;70.94;98738.34;5095405;28;20027;-50
2021/09/05 01:59:26;;;;;;;8.90;6.47;;;;;;;17.89;71.25;98729.69;5113642;28;20022;-51
2021/09/05 02:01:55;;;;;;;10.10;6.88;;;;;;;17.87;71.67;98728.34;5113609;28;20083;-50
2021/09/05 02:04:21;;;;;;;11.45;6.32;;;;;;;17.86;71.54;98727.53;5095282;28;20060;-51
2021/09/05 02:06:47;;;;;;;8.57;6.32;;;;;;;17.86;71.62;98735.47;5113486;28;20112;-50
2021/09/05 02:09:12;;;;;;;65.05;43.38;;;;;;;17.83;71.65;98729.81;5113541;28;20509;-50
2021/09/05 02:11:38;;;;;;;30.70;20.55;;;;;;;17.82;71.68;98730.88;5112314;28;20670;-50
2021/09/05 02:14:04;;;;;;;27.63;21.58;;;;;;;17.81;71.63;98737.22;5113360;28;20153;-50
2021/09/05 02:16:30;;;;;;;49.08;34.00;;;;;;;17.76;71.96;98741.44;5113296;28;20063;-51
2021/09/05 02:18:56;;;;;;;22.77;14.88;;;;;;;17.82;71.73;98741.50;5094996;28;20023;-50
2021/09/05 02:21:21;;;;;;;71.35;64.80;;;;;;;17.97;71.56;98747.06;5111648;28;20024;-51
2021/09/05 02:23:47;;;;;;;25.00;22.38;;;;;;;18.39;71.06;98733.19;5113490;28;20110;-51
2021/09/05 02:26:13;;;;;;;17.02;13.60;;;;;;;18.88;69.65;98732.34;5094832;28;20024;-51
2021/09/05 02:28:39;;;;;;;19.52;11.50;;;;;;;19.50;67.95;98733.56;5111771;28;20397;-51
2021/09/05 02:31:04;;;;;;;15.70;10.25;;;;;;;20.03;65.99;98742.38;5113031;28;20027;-51
2021/09/05 02:33:30;;;;;;;12.18;6.57;;;;;;;20.31;64.76;98738.47;5113019;28;20028;-51
2021/09/05 02:35:56;;;;;;;14.10;7.22;;;;;;;20.05;64.49;98731.47;5112921;28;20111;-51
2021/09/05 02:38:22;;;;;;;8.82;6.72;;;;;;;19.63;64.63;98730.44;5094634;28;20749;-51
2021/09/05 02:40:48;;;;;;;8.90;6.57;;;;;;;18.94;66.43;98729.44;5094542;28;20106;-51
2021/09/05 02:43:13;;;;;;;10.25;6.82;;;;;;;18.48;68.12;98734.31;5094518;28;20461;-50
2021/09/05 02:45:39;;;;;;;8.68;6.53;;;;;;;18.49;68.49;98733.28;5094434;28;20034;-51
2021/09/05 02:48:05;;;;;;;14.50;5.70;;;;;;;18.76;68.49;98735.13;5112751;28;20023;-50
2021/09/05 02:50:31;;;;;;;11.65;6.28;;;;;;;19.27;67.40;98740.84;5112696;28;20034;-51
2021/09/05 02:52:58;;;;;;;9.48;5.80;;;;;;;19.48;66.20;98736.50;5112578;28;20099;-50
2021/09/05 02:55:24;;;;;;;10.95;6.63;;;;;;;19.21;66.21;98738.44;5112586;28;20072;-51
2021/09/05 02:57:50;;;;;;;13.25;11.95;;;;;;;18.92;66.86;98747.53;5112582;28;20015;-51
2021/09/05 03:00:16;;;;;;;9.25;6.55;;;;;;;18.70;67.54;98738.78;5112540;28;20031;-51
2021/09/05 03:02:41;;;;;;;12.30;7.68;;;;;;;18.73;67.66;98740.94;5112604;28;20602;-51
2021/09/05 03:05:07;;;;;;;9.45;6.55;;;;;;;19.00;67.50;98740.94;5112520;28;20023;-51
2021/09/05 03:07:33;;;;;;;10.75;6.10;;;;;;;19.42;66.46;98731.38;5094192;28;20050;-51
2021/09/05 03:09:59;;;;;;;8.45;6.18;;;;;;;19.74;65.15;98737.47;5094166;28;20412;-51
2021/09/05 03:12:24;;;;;;;12.13;8.32;;;;;;;19.77;64.49;98736.13;5093945;28;20022;-51
2021/09/05 03:14:51;;;;;;;35.72;32.25;;;;;;;19.79;64.70;98741.22;5112351;28;20028;-50
2021/09/05 03:17:17;;;;;;;8.85;5.57;;;;;;;20.05;64.03;98745.56;5110997;28;20058;-51
2021/09/05 03:19:43;;;;;;;8.40;5.68;;;;;;;19.95;63.71;98740.22;5112291;28;20116;-50
2021/09/05 03:22:08;;;;;;;7.38;5.20;;;;;;;19.65;63.88;98741.63;5111490;28;20048;-51
2021/09/05 03:24:34;;;;;;;8.35;5.88;;;;;;;19.43;64.73;98746.28;5093795;28;20038;-51
2021/09/05 03:26:59;;;;;;;13.25;5.57;;;;;;;19.44;65.08;98750.56;5093853;28;20059;-51
2021/09/05 03:29:25;;;;;;;11.45;5.18;;;;;;;19.51;64.93;98741.28;5112210;28;20022;-51
2021/09/05 03:31:51;;;;;;;14.80;8.68;;;;;;;19.82;64.33;98744.16;5112152;28;20076;-50
2021/09/05 03:34:16;;;;;;;9.93;8.02;;;;;;;20.02;63.32;98734.63;5112083;28;20031;-51
2021/09/05 03:36:42;;;;;;;11.05;8.02;;;;;;;19.83;63.28;98735.09;5112126;28;20565;-50
2021/09/05 03:39:08;;;;;;;9.40;6.13;;;;;;;19.54;63.65;98737.31;5093844;28;20048;-51
2021/09/05 03:41:33;;;;;;;12.18;9.05;;;;;;;19.36;64.39;98736.69;5112039;28;20465;-50
2021/09/05 03:43:59;;;;;;;10.60;5.97;;;;;;;19.44;64.56;98734.59;5093803;28;20111;-51
2021/09/05 03:46:25;;;;;;;16.90;7.72;;;;;;;19.61;64.22;98739.75;5112040;28;20024;-51
2021/09/05 03:48:51;;;;;;;9.15;7.22;;;;;;;19.73;63.69;98737.72;5093687;28;20040;-51
2021/09/05 03:51:16;;;;;;;6.90;5.47;;;;;;;19.73;63.31;98740.38;5093669;28;20051;-51
2021/09/05 03:53:44;;;;;;;13.82;6.97;;;;;;;19.36;63.64;98738.53;5111868;28;20063;-50
2021/09/05 03:56:09;;;;;;;9.73;6.53;;;;;;;18.88;64.95;98743.75;5111961;28;20024;-51
2021/09/05 03:58:35;;;;;;;7.70;6.97;;;;;;;18.44;66.56;98743.84;5093603;28;20030;-51
2021/09/05 04:01:00;;;;;;;12.43;7.75;;;;;;;18.05;67.83;98745.78;5093511;28;20043;-50
2021/09/05 04:03:26;;;;;;;11.80;7.95;;;;;;;17.81;69.01;98758.47;5111897;28;20111;-50
2021/09/05 04:05:52;;;;;;;14.60;13.13;;;;;;;17.63;69.60;98752.41;5093550;28;20110;-50
2021/09/05 04:08:17;;;;;;;8.60;7.80;;;;;;;17.50;70.17;98745.59;5110482;28;20012;-51
2021/09/05 04:10:44;;;;;;;8.95;7.70;;;;;;;17.36;70.70;98747.81;5093435;28;20030;-51
2021/09/05 04:13:14;;;;;;;9.63;6.75;;;;;;;17.27;70.89;98746.59;5111759;28;20046;-51
2021/09/05 04:15:41;;;;;;;12.45;11.25;;;;;;;17.22;71.16;98753.66;5111682;28;20089;-50
2021/09/05 04:18:08;;;;;;;10.77;7.65;;;;;;;17.41;70.95;98757.69;5111747;28;20019;-50
2021/09/05 04:20:33;;;;;;;19.65;15.57;;;;;;;17.60;70.23;98752.91;5111692;28;20075;-50
2021/09/05 04:22:59;;;;;;;10.50;8.77;;;;;;;17.72;70.00;98755.44;5091013;28;20135;-50
2021/09/05 04:25:25;;;;;;;12.52;8.85;;;;;;;17.59;69.97;98756.59;5069841;28;20020;-50
2021/09/05 04:27:51;;;;;;;8.10;7.30;;;;;;;17.41;70.34;98755.03;5071049;28;20081;-50
2021/09/05 04:30:19;;;;;;;8.40;7.47;;;;;;;17.24;71.09;98757.69;5071082;28;20499;-50
2021/09/05 04:32:45;;;;;;;13.85;12.38;;;;;;;17.15;71.45;98757.28;5070998;28;20104;-50
2021/09/05 04:35:11;;;;;;;9.52;7.80;;;;;;;17.07;71.82;98752.38;5072380;28;20550;-50
2021/09/05 04:37:36;;;;;;;17.88;13.05;;;;;;;16.98;72.29;98756.47;5073298;28;20051;-50
2021/09/05 04:40:04;;;;;;;12.70;9.00;;;;;;;16.97;72.21;98758.31;5074571;28;20112;-50
2021/09/05 04:42:30;;;;;;;9.18;7.10;;;;;;;16.91;72.56;98761.94;5074520;28;20044;-50
2021/09/05 04:44:56;;;;;;;8.15;7.10;;;;;;;16.86;72.77;98761.03;5074484;28;20394;-50
2021/09/05 04:47:22;;;;;;;8.27;7.50;;;;;;;16.83;72.92;98764.97;5074467;28;20116;-50
2021/09/05 04:49:47;;;;;;;10.32;7.93;;;;;;;16.81;73.06;98777.66;5074381;28;20016;-51
2021/09/05 04:52:13;;;;;;;16.77;11.45;;;;;;;16.90;72.87;98775.41;5073002;28;20024;-50
2021/09/05 04:54:42;;;;;;;15.82;10.77;;;;;;;17.00;72.62;98772.94;5072948;28;20020;-50
2021/09/05 04:57:08;;;;;;;52.58;47.90;;;;;;;17.05;72.64;98774.88;5072977;28;20028;-50
2021/09/05 04:59:34;;;;;;;12.10;10.90;;;;;;;17.01;72.58;98777.22;5074530;28;20020;-50
2021/09/05 05:01:59;;;;;;;10.25;9.13;;;;;;;16.92;72.66;98779.47;5072846;28;20032;-50
2021/09/05 05:04:25;;;;;;;12.25;7.82;;;;;;;16.83;72.88;98783.53;5074471;28;20035;-50
2021/09/05 05:06:51;;;;;;;13.55;7.93;;;;;;;16.77;73.16;98795.84;5074085;28;20086;-50
2021/09/05 05:09:16;;;;;;;36.60;33.10;;;;;;;16.73;73.42;98801.88;5074087;28;20021;-50
2021/09/05 05:11:43;;;;;;;39.47;35.67;;;;;;;16.75;73.88;98805.88;5072702;28;20028;-50
2021/09/05 05:14:13;;;;;;;11.90;9.63;;;;;;;16.99;73.13;98812.97;5072598;28;20021;-50
2021/09/05 05:16:39;;;;;;;34.40;31.02;;;;;;;17.00;72.61;98817.22;5073903;28;20024;-50
2021/09/05 05:19:05;;;;;;;12.00;7.85;;;;;;;16.94;72.59;98811.00;5072607;28;20090;-51
2021/09/05 05:21:31;;;;;;;7.85;7.07;;;;;;;16.91;72.83;98812.31;5080230;28;20065;-50
2021/09/05 05:23:59;;;;;;;11.25;7.60;;;;;;;17.05;72.71;98810.16;5096092;28;20030;-50
2021/09/05 05:26:29;;;;;;;21.50;18.92;;;;;;;17.37;71.54;98807.75;5114283;28;20393;-50
2021/09/05 05:28:55;;;;;;;68.97;62.72;;;;;;;17.98;70.75;98807.06;5112969;28;20023;-50
2021/09/05 05:31:21;;;;;;;17.63;12.82;;;;;;;19.01;68.50;98811.69;5112932;28;20047;-50
2021/09/05 05:33:47;;;;;;;17.38;11.20;;;;;;;20.02;65.07;98809.22;5114127;28;20485;-51
2021/09/05 05:36:13;;;;;;;17.77;16.08;;;;;;;20.86;62.31;98816.19;5114186;28;20027;-50
2021/09/05 05:38:42;;;;;;;24.30;20.73;;;;;;;21.62;59.82;98808.50;5114070;28;20058;-51
2021/09/05 05:41:08;;;;;;;9.65;5.97;;;;;;;22.22;57.93;98812.06;5112755;28;20057;-50
2021/09/05 05:43:35;;;;;;;16.00;8.52;;;;;;;22.62;56.27;98812.19;5114000;28;20082;-50
2021/09/05 05:46:01;;;;;;;15.18;13.23;;;;;;;22.99;56.08;98808.22;5095361;28;20039;-51
2021/09/05 05:48:27;;;;;;;40.97;37.25;;;;;;;23.30;57.43;98814.97;5112529;28;20020;-51
2021/09/05 05:50:53;;;;;;;7.47;6.65;;;;;;;23.12;57.00;98812.97;5095512;28;20027;-51
2021/09/05 05:53:20;;;;;;;13.00;6.88;;;;;;;22.53;57.31;98823.44;5095449;28;20042;-48
2021/09/05 05:55:46;;;;;;;9.05;6.07;;;;;;;22.19;56.75;98820.63;5113732;28;20059;-49
2021/09/05 05:58:12;;;;;;;11.40;6.22;;;;;;;22.12;57.04;98820.13;5113746;28;20470;-49
2021/09/05 06:00:38;;;;;;;14.60;10.00;;;;;;;22.22;56.86;98820.09;5113676;28;20126;-48
2021/09/05 06:03:07;;;;;;;286.27;257.45;;;;;;;22.79;55.97;98826.00;5113612;28;20076;-48
2021/09/05 06:05:33;;;;;;;859.47;708.13;;;;;;;23.39;54.65;98825.84;5113484;28;20023;-48
2021/09/05 06:08:01;;;;;;;312.50;283.05;;;;;;;23.72;52.85;98826.91;5113487;28;20019;-49
2021/09/05 06:10:28;;;;;;;254.27;227.57;;;;;;;23.69;52.51;98827.44;5113415;28;20020;-48
2021/09/05 06:12:54;;;;;;;42.13;37.75;;;;;;;23.44;52.64;98836.53;5112060;28;20165;-49
2021/09/05 06:15:20;;;;;;;50.17;43.03;;;;;;;23.42;53.31;98830.66;5113349;28;20035;-48
2021/09/05 06:17:45;;;;;;;47.13;42.70;;;;;;;24.13;51.79;98839.88;5113306;28;20015;-48
2021/09/05 06:20:11;;;;;;;10.50;6.72;;;;;;;24.61;49.39;98835.56;5113305;28;20028;-48
2021/09/05 06:22:37;;;;;;;20.00;17.88;;;;;;;24.53;49.41;98837.03;5112932;28;20416;-48
2021/09/05 06:25:03;;;;;;;9.60;7.90;;;;;;;24.65;49.33;98836.59;5113191;28;20024;-48
2021/09/05 06:27:29;;;;;;;11.63;7.13;;;;;;;24.75;48.89;98838.34;5113173;28;20077;-49
2021/09/05 06:29:54;;;;;;;7.10;6.40;;;;;;;24.86;48.93;98839.78;5113333;28;20027;-48
2021/09/05 06:32:20;;;;;;;20.00;16.48;;;;;;;25.23;48.23;98840.88;5113022;28;20481;-49
2021/09/05 06:34:46;;;;;;;7.55;5.85;;;;;;;25.55;47.70;98841.97;5112970;28;20026;-48
2021/09/05 06:37:12;;;;;;;19.60;17.63;;;;;;;25.24;47.54;98842.47;5094655;28;20481;-48
2021/09/05 06:39:38;;;;;;;9.55;6.85;;;;;;;24.97;48.54;98843.94;5112918;28;20020;-48
2021/09/05 06:42:04;;;;;;;10.80;6.47;;;;;;;24.97;48.31;98843.13;5112890;28;20031;-48
2021/09/05 06:44:30;;;;;;;6.32;5.10;;;;;;;25.15;47.74;98839.59;5112808;28;20069;-48
2021/09/05 06:46:55;;;;;;;449.77;371.08;;;;;;;25.30;48.03;98847.47;5112786;28;20024;-49
2021/09/05 06:49:21;;;;;;;35.42;27.70;;;;;;;26.13;45.70;98843.34;5112794;28;20024;-48
2021/09/05 06:51:47;;;;;;;110.35;98.43;;;;;;;26.74;44.52;98841.31;5112719;28;20015;-48
2021/09/05 06:54:13;;;;;;;48.35;39.83;;;;;;;27.33;43.70;98839.41;5111294;28;20036;-48
2021/09/05 06:56:38;;;;;;;15.90;13.15;;;;;;;28.14;41.54;98846.50;5112675;28;20522;-49
2021/09/05 06:59:04;;;;;;;300.13;268.33;;;;;;;28.95;40.28;98847.13;5112072;28;20127;-48
2021/09/05 07:01:32;;;;;;;129.23;116.40;;;;;;;29.89;38.64;98847.31;5112567;28;20069;-49
2021/09/05 07:03:59;;;;;;;14.70;13.18;;;;;;;30.62;37.21;98840.88;5112667;28;20027;-51
2021/09/05 07:06:24;;;;;;;10.32;6.95;;;;;;;31.28;35.49;98845.63;5112545;28;20059;-51
2021/09/05 07:08:50;;;;;;;7.95;6.93;;;;;;;31.76;35.29;98838.75;5112529;28;20107;-51
2021/09/05 07:11:16;;;;;;;6.60;5.03;;;;;;;32.28;33.89;98842.75;5094204;28;20019;-51
2021/09/05 07:13:42;;;;;;;7.85;5.88;;;;;;;32.12;34.23;98841.84;5112339;28;20024;-51
2021/09/05 07:16:08;;;;;;;10.20;5.93;;;;;;;31.75;34.77;98839.84;5112394;28;20027;-51
2021/09/05 07:18:34;;;;;;;10.77;6.63;;;;;;;31.85;35.19;98842.16;5112329;28;20035;-49
2021/09/05 07:21:00;;;;;;;9.77;4.22;;;;;;;32.39;33.51;98837.63;5112577;28;20088;-49
2021/09/05 07:23:28;;;;;;;10.15;8.65;;;;;;;32.52;33.39;98846.53;5076830;28;20047;-49
2021/09/05 07:25:55;;;;;;;9.90;7.45;;;;;;;33.02;33.16;98834.41;5112266;28;20103;-49
2021/09/05 07:28:21;;;;;;;11.93;6.53;;;;;;;33.69;31.72;98837.38;5112267;28;20020;-49
2021/09/05 07:30:47;;;;;;;13.00;8.02;;;;;;;34.25;30.78;98846.50;5112526;28;20028;-49
2021/09/05 07:33:13;;;;;;;13.18;10.20;;;;;;;34.72;30.17;98845.59;5093744;28;20503;-49
2021/09/05 07:35:39;;;;;;;6.32;4.68;;;;;;;34.91;29.94;98847.53;5110862;28;20019;-49
2021/09/05 07:38:04;;;;;;;6.45;4.03;;;;;;;34.99;29.63;98846.53;5112150;28;20062;-49
2021/09/05 07:40:30;;;;;;;11.77;7.90;;;;;;;35.22;29.38;98840.38;5112091;28;20080;-50
2021/09/05 07:42:56;;;;;;;5.75;3.88;;;;;;;35.41;29.04;98841.09;5112149;28;20035;-49
2021/09/05 07:45:21;;;;;;;6.28;4.15;;;;;;;35.37;28.94;98848.44;5112041;28;20482;-50
2021/09/05 07:47:47;;;;;;;5.65;4.95;;;;;;;35.60;28.55;98847.69;5112050;28;20481;-50
2021/09/05 07:50:13;;;;;;;6.68;4.63;;;;;;;36.29;27.94;98849.59;5093730;28;20081;-50
2021/09/05 07:52:38;;;;;;;8.02;5.32;;;;;;;36.89;27.75;98852.34;5111955;28;20020;-49
2021/09/05 07:55:04;;;;;;;5.43;3.78;;;;;;;37.48;26.05;98849.09;5111951;28;20516;-52
2021/09/05 07:57:30;;;;;;;8.18;5.10;;;;;;;37.98;25.49;98852.25;5111965;28;20074;-52
2021/09/05 07:59:56;;;;;;;6.80;4.50;;;;;;;38.22;25.12;98856.38;5111954;28;20020;-52
2021/09/05 08:02:22;;;;;;;7.35;6.22;;;;;;;37.77;25.55;98856.41;5093506;28;20459;-52
2021/09/05 08:04:47;;;;;;;6.32;5.60;;;;;;;37.82;25.87;98857.22;5112130;28;20080;-51
2021/09/05 08:07:13;;;;;;;8.88;4.35;;;;;;;37.97;25.54;98859.72;5111834;28;20489;-52
2021/09/05 08:09:39;;;;;;;7.63;6.05;;;;;;;38.39;25.56;98860.38;5114168;28;20023;-52
2021/09/05 08:12:05;;;;;;;7.90;3.83;;;;;;;38.78;24.28;98864.50;5115804;28;20060;-51
2021/09/05 08:14:32;;;;;;;6.57;3.28;;;;;;;39.17;23.71;98874.88;5115676;28;20051;-52
2021/09/05 08:16:58;;;;;;;6.75;3.78;;;;;;;39.34;23.49;98879.59;5115666;28;20062;-51
2021/09/05 08:19:24;;;;;;;7.07;4.57;;;;;;;39.11;23.46;98877.97;5097351;28;20051;-51
2021/09/05 08:21:50;;;;;;;9.85;4.85;;;;;;;39.07;23.67;98881.91;5115063;28;20086;-51
2021/09/05 08:24:15;;;;;;;5.15;3.50;;;;;;;39.00;23.78;98882.69;5115586;28;20051;-52
2021/09/05 08:26:41;;;;;;;7.03;4.18;;;;;;;39.58;23.07;98875.34;5097169;28;20038;-51
2021/09/05 08:29:08;;;;;;;6.97;4.30;;;;;;;39.98;22.42;98880.88;5115706;28;20103;-51
2021/09/05 08:31:34;;;;;;;13.63;12.35;;;;;;;39.90;22.39;98871.84;5115333;28;20027;-51
2021/09/05 08:34:03;;;;;;;10.13;9.02;;;;;;;39.53;22.97;98871.03;5114051;28;20020;-50
2021/09/05 08:36:30;;;;;;;8.18;4.30;;;;;;;39.70;22.73;98877.75;5115344;28;20016;-52
2021/09/05 08:38:59;;;;;;;4.43;4.03;;;;;;;40.03;22.40;98872.25;5115327;28;20476;-51
2021/09/05 08:41:26;;;;;;;7.20;3.88;;;;;;;39.72;22.71;98882.81;5096931;28;20023;-52
2021/09/05 08:43:52;;;;;;;9.25;4.10;;;;;;;39.39;23.59;98876.47;5115203;28;20111;-52
2021/09/05 08:46:18;;;;;;;6.85;4.55;;;;;;;39.18;23.35;98881.94;5115131;28;20463;-52
2021/09/05 08:48:48;;;;;;;7.13;4.03;;;;;;;39.02;23.49;98883.06;5096784;28;20396;-51
2021/09/05 08:51:14;;;;;;;8.02;3.88;;;;;;;39.09;23.07;98887.78;5096752;28;20039;-52
2021/09/05 08:53:40;;;;;;;8.55;6.07;;;;;;;39.21;23.29;98884.69;5096647;28;20018;-52
2021/09/05 08:56:06;;;;;;;5.53;4.18;;;;;;;39.39;23.34;98892.19;5114957;28;20032;-51
2021/09/05 08:58:33;;;;;;;6.18;4.40;;;;;;;39.51;23.35;98884.38;5096623;28;20084;-52
2021/09/05 09:01:19;;;;;;;7.32;6.70;;;;;;;39.82;23.14;98884.78;5114877;28;20095;-52
2021/09/05 09:03:45;;;;;;;9.80;8.20;;;;;;;39.86;23.15;98887.53;5114861;28;20165;-52
2021/09/05 09:06:17;;;;;;;5.65;4.32;;;;;;;39.83;22.54;98891.88;5096417;28;20024;-51
2021/09/05 09:08:55;;;;;;;8.57;5.32;;;;;;;40.02;22.74;98889.91;5115102;28;20111;-51
2021/09/05 09:11:24;;;;;;;29.58;26.95;;;;;;;40.05;22.75;98886.41;5114924;28;20377;-51
2021/09/05 09:13:56;;;;;;;19.65;17.70;;;;;;;40.19;22.52;98886.38;5114543;28;20508;-51
2021/09/05 09:16:34;;;;;;;4.80;4.30;;;;;;;40.44;22.29;98877.31;5114629;28;20076;-51
2021/09/05 09:19:00;;;;;;;10.40;6.35;;;;;;;40.60;21.94;98879.63;5114532;28;20413;-52
2021/09/05 09:21:25;;;;;;;7.53;4.55;;;;;;;40.68;21.73;98881.94;5095323;28;20031;-52
2021/09/05 09:23:51;;;;;;;7.05;5.03;;;;;;;40.81;21.55;98882.31;5114761;28;20027;-52
2021/09/05 09:26:17;;;;;;;6.78;5.95;;;;;;;41.10;21.31;98879.44;5096023;28;20023;-52
2021/09/05 09:28:49;;;;;;;6.10;4.93;;;;;;;41.69;20.73;98873.94;5096044;28;20111;-52
2021/09/05 09:31:18;;;;;;;8.07;5.30;;;;;;;41.98;20.63;98873.72;5114194;28;20504;-52
2021/09/05 09:33:47;;;;;;;7.45;3.97;;;;;;;42.04;20.52;98874.09;5114170;28;20100;-52
2021/09/05 09:36:16;;;;;;;10.90;5.53;;;;;;;42.02;20.12;98877.25;5114156;28;20388;-52
2021/09/05 09:38:53;;;;;;;8.95;4.60;;;;;;;41.69;20.70;98876.72;5114167;28;20523;-51
2021/09/05 09:41:18;;;;;;;6.78;4.30;;;;;;;41.22;21.17;98872.69;5114027;28;20028;-51
2021/09/05 09:43:50;;;;;;;8.18;4.30;;;;;;;41.09;21.41;98872.34;5114056;28;20032;-52
2021/09/05 09:46:19;;;;;;;6.00;3.47;;;;;;;41.25;21.17;98871.88;5113991;28;20016;-52
2021/09/05 09:48:49;;;;;;;9.40;3.60;;;;;;;41.50;20.91;98864.25;5113966;28;20107;-52
2021/09/05 09:51:16;;;;;;;9.00;3.72;;;;;;;41.66;20.65;98871.25;5113878;28;20028;-51
2021/09/05 09:53:44;;;;;;;5.85;3.47;;;;;;;41.64;20.45;98879.91;5113788;28;20024;-52
2021/09/05 09:56:17;;;;;;;4.80;3.20;;;;;;;41.86;20.30;98871.47;5113946;28;20049;-51
2021/09/05 09:58:44;;;;;;;3.65;3.28;;;;;;;42.13;19.88;98866.13;5113841;28;20031;-51
2021/09/05 10:01:16;;;;;;;3.80;3.50;;;;;;;42.43;19.70;98873.66;5113984;28;20031;-51
2021/09/05 10:03:49;;;;;;;4.35;2.80;;;;;;;42.72;19.26;98875.34;5113980;28;20031;-52
2021/09/05 10:06:14;;;;;;;9.05;6.68;;;;;;;42.78;19.36;98870.94;5113553;28;20393;-52
2021/09/05 10:08:45;;;;;;;8.40;6.70;;;;;;;42.66;18.98;98872.25;5113565;28;20049;-52
2021/09/05 10:11:15;;;;;;;6.20;4.55;;;;;;;41.73;19.84;98868.41;5113476;28;20019;-52
2021/09/05 10:13:42;;;;;;;4.72;3.40;;;;;;;40.27;21.54;98871.44;5095101;28;20028;-52
2021/09/05 10:16:09;;;;;;;5.80;4.00;;;;;;;40.58;21.84;98869.00;5078210;28;20055;-52
2021/09/05 10:18:40;;;;;;;5.00;3.58;;;;;;;40.88;21.17;98868.50;5113268;28;20066;-52
2021/09/05 10:21:07;;;;;;;5.00;4.18;;;;;;;40.66;21.73;98867.78;5095041;28;20446;-52
2021/09/05 10:23:35;;;;;;;4.70;3.58;;;;;;;41.16;21.53;98866.03;5094699;28;20557;-52
2021/09/05 10:26:06;;;;;;;3.40;3.10;;;;;;;41.74;20.60;98866.44;5113158;28;20023;-52
2021/09/05 10:28:36;;;;;;;5.95;4.60;;;;;;;41.46;21.00;98863.47;5094905;28;20404;-52
2021/09/05 10:31:02;;;;;;;7.05;5.20;;;;;;;41.63;21.09;98863.78;5113132;28;20016;-51
2021/09/05 10:33:40;;;;;;;7.40;4.50;;;;;;;41.62;20.66;98870.50;5093751;28;20504;-52
2021/09/05 10:36:11;;;;;;;4.28;3.88;;;;;;;40.88;21.28;98867.75;5094746;28;20058;-51
2021/09/05 10:38:47;;;;;;;5.20;4.10;;;;;;;40.85;21.43;98858.31;5078482;28;20496;-52
2021/09/05 10:41:18;;;;;;;6.65;3.25;;;;;;;41.17;21.27;98862.88;5113005;28;20028;-52
2021/09/05 10:43:47;;;;;;;5.80;4.05;;;;;;;41.40;21.25;98854.09;5112910;28;20465;-52
2021/09/05 10:46:24;;;;;;;4.43;3.40;;;;;;;41.28;21.26;98860.06;5112831;28;20448;-52
2021/09/05 10:48:58;;;;;;;4.88;3.45;;;;;;;40.67;21.85;98863.88;5113090;28;20115;-51
2021/09/05 10:51:46;;;;;;;5.28;3.35;;;;;;;40.76;21.97;98855.22;5112976;28;20076;-51
2021/09/05 10:54:22;;;;;;;5.90;3.60;;;;;;;41.02;21.45;98861.38;5112614;28;20039;-51
2021/09/05 10:56:48;;;;;;;4.80;3.40;;;;;;;41.05;21.56;98864.13;5112686;28;20027;-52
2021/09/05 10:59:18;;;;;;;4.22;3.60;;;;;;;40.94;21.52;98860.63;5112656;28;20500;-51
2021/09/05 11:01:46;;;;;;;4.40;3.53;;;;;;;40.88;21.64;98862.22;5112512;28;20469;-50
2021/09/05 11:04:12;;;;;;;7.13;3.50;;;;;;;40.82;22.08;98861.84;5112549;28;20489;-52
2021/09/05 11:06:43;;;;;;;4.30;3.13;;;;;;;40.81;22.03;98862.25;5112518;28;20012;-51
2021/09/05 11:09:24;;;;;;;3.45;2.92;;;;;;;41.15;21.82;98851.44;5112491;28;20084;-52
2021/09/05 11:12:01;;;;;;;5.72;3.53;;;;;;;41.36;21.50;98856.09;5094143;28;20023;-51
2021/09/05 11:14:36;;;;;;;4.35;3.45;;;;;;;40.62;21.94;98852.50;5094382;28;20038;-52
2021/09/05 11:17:07;;;;;;;4.38;3.65;;;;;;;39.89;23.04;98851.84;5112357;28;20019;-52
2021/09/05 11:19:50;;;;;;;4.00;3.10;;;;;;;40.19;22.54;98845.13;5112349;28;20063;-52
2021/09/05 11:22:22;;;;;;;4.22;3.72;;;;;;;40.50;22.43;98842.69;5112117;28;20047;-52
2021/09/05 11:25:10;;;;;;;4.43;3.70;;;;;;;40.41;22.20;98845.06;5112449;28;20140;-52
2021/09/05 11:27:38;;;;;;;7.72;3.80;;;;;;;40.31;21.97;98836.47;5094023;28;20489;-50